This is the latest recevied weather packets stored in our database for station/object VA7NEZ. If no packets are shown the sender has not sent any weather packets the latest 1 day(s).
| Time | Temp. | Humidity | Pressure | Rain* | Wind** | Luminosity | Snow |
|---|---|---|---|---|---|---|---|
| 1778050707 | 13.89° C | 57% | 1011.2 hPa | 0 mm | - | - | - |
| 1778050146 | 13.89° C | 54% | 1011.3 hPa | 0 mm | - | - | - |
| 1778049567 | 14.44° C | 54% | 1011.1 hPa | 0 mm | - | - | - |
| 1778048992 | 14.44° C | 50% | 1011 hPa | 0 mm | - | - | - |
| 1778048417 | 15° C | 49% | 1011 hPa | 0 mm | - | - | - |
| 1778047832 | 15.56° C | 48% | 1010.8 hPa | 0 mm | - | - | - |
| 1778044523 | 0° C | 100% | 1010.7 hPa | 0 mm | - | - | - |
| 1778043992 | 17.78° C | 48% | 1010.6 hPa | 0 mm | - | - | - |
| 1778041307 | 20° C | 38% | 1010 hPa | 0 mm | - | - | - |
| 1778040795 | 20.56° C | 39% | 1010 hPa | 0 mm | - | - | - |
| 1778040296 | 20.56° C | 36% | 1010 hPa | 0 mm | - | - | - |
| 1778039727 | 21.11° C | 33% | 1009.7 hPa | 0 mm | - | - | - |
| 1778038687 | 22.78° C | 30% | 1009.6 hPa | 0 mm | - | - | - |
| 1778038117 | 23.33° C | 29% | 1009.5 hPa | 0 mm | - | - | - |
| 1778037627 | 23.89° C | 28% | 1009.6 hPa | 0 mm | - | - | - |
| 1778035878 | 0° C | 100% | 1009.6 hPa | 0 mm | - | - | - |
| 1778035382 | 26.67° C | 25% | 1009.5 hPa | 0 mm | - | - | - |
| 1778034882 | 0° C | 100% | 1009.6 hPa | 0 mm | - | - | - |
| 1778033161 | 31.67° C | 18% | 1009.7 hPa | 0 mm | - | - | - |
| 1778032592 | 30° C | 20% | 1009.6 hPa | 0 mm | - | - | - |
| 1778030932 | 28.89° C | 20% | 1009.7 hPa | 0 mm | - | - | - |
| 1778030442 | 30.56° C | 18% | 1009.7 hPa | 0 mm | - | - | - |
| 1778029877 | 32.22° C | 17% | 1009.7 hPa | 0 mm | - | - | - |
| 1778028892 | 31.11° C | 17% | 1009.9 hPa | 0 mm | - | - | - |
| 1778027327 | 30.56° C | 18% | 1010.2 hPa | 0 mm | - | - | - |
* Rain latest hour (hover to see other rain measurements)
** Current wind speed in m/s (hover to see current wind gust speed)